sensor_id;sensor_type;location;lat;lon;timestamp;pressure;altitude;pressure_sealevel;temperature;humidity
50349;BME280;36250;48.740;22.174;2022-10-19T00:00:42;100831.66;;;10.25;100.00
50349;BME280;36250;48.740;22.174;2022-10-19T00:03:08;100823.69;;;10.34;100.00
50349;BME280;36250;48.740;22.174;2022-10-19T00:05:33;100824.78;;;10.39;100.00
50349;BME280;36250;48.740;22.174;2022-10-19T00:07:58;100832.53;;;10.49;100.00
50349;BME280;36250;48.740;22.174;2022-10-19T00:10:25;100831.69;;;10.57;100.00
50349;BME280;36250;48.740;22.174;2022-10-19T00:12:51;100836.63;;;10.60;100.00
50349;BME280;36250;48.740;22.174;2022-10-19T00:15:16;100849.38;;;10.56;100.00
50349;BME280;36250;48.740;22.174;2022-10-19T00:17:42;100849.38;;;10.56;100.00
50349;BME280;36250;48.740;22.174;2022-10-19T00:20:08;100841.28;;;10.58;100.00
50349;BME280;36250;48.740;22.174;2022-10-19T00:22:33;100845.56;;;10.59;100.00
50349;BME280;36250;48.740;22.174;2022-10-19T00:24:58;100834.63;;;10.62;100.00
50349;BME280;36250;48.740;22.174;2022-10-19T00:27:23;100830.63;;;10.66;100.00
50349;BME280;36250;48.740;22.174;2022-10-19T00:29:49;100819.50;;;10.71;100.00
50349;BME280;36250;48.740;22.174;2022-10-19T00:32:14;100829.22;;;10.79;100.00
50349;BME280;36250;48.740;22.174;2022-10-19T00:34:39;100832.63;;;10.87;100.00
50349;BME280;36250;48.740;22.174;2022-10-19T00:37:05;100831.28;;;10.92;100.00
50349;BME280;36250;48.740;22.174;2022-10-19T00:39:30;100831.56;;;10.97;100.00
50349;BME280;36250;48.740;22.174;2022-10-19T00:41:55;100823.44;;;10.98;100.00
50349;BME280;36250;48.740;22.174;2022-10-19T00:46:58;100835.81;;;11.06;100.00
50349;BME280;36250;48.740;22.174;2022-10-19T00:49:34;100834.63;;;11.09;100.00
50349;BME280;36250;48.740;22.174;2022-10-19T00:52:07;100838.91;;;11.10;100.00
50349;BME280;36250;48.740;22.174;2022-10-19T00:54:37;100832.63;;;11.11;100.00
50349;BME280;36250;48.740;22.174;2022-10-19T00:57:03;100832.63;;;11.11;100.00
50349;BME280;36250;48.740;22.174;2022-10-19T00:59:30;100829.31;;;11.09;100.00
50349;BME280;36250;48.740;22.174;2022-10-19T01:01:57;100821.91;;;11.04;100.00
50349;BME280;36250;48.740;22.174;2022-10-19T01:04:24;100824.09;;;11.00;100.00
50349;BME280;36250;48.740;22.174;2022-10-19T01:06:53;100815.97;;;11.02;100.00
50349;BME280;36250;48.740;22.174;2022-10-19T01:09:19;100805.19;;;11.04;100.00
50349;BME280;36250;48.740;22.174;2022-10-19T01:17:19;100803.09;;;11.14;100.00
50349;BME280;36250;48.740;22.174;2022-10-19T01:31:33;100847.72;;;10.87;100.00
50349;BME280;36250;48.740;22.174;2022-10-19T01:34:12;100834.28;;;10.89;100.00
50349;BME280;36250;48.740;22.174;2022-10-19T01:36:55;100838.56;;;10.90;100.00
50349;BME280;36250;48.740;22.174;2022-10-19T01:45:27;100796.50;;;11.10;100.00
50349;BME280;36250;48.740;22.174;2022-10-19T01:48:00;100782.06;;;11.12;100.00
50349;BME280;36250;48.740;22.174;2022-10-19T01:50:44;100771.28;;;11.14;100.00
50349;BME280;36250;48.740;22.174;2022-10-19T01:53:12;100762.03;;;11.10;100.00
50349;BME280;36250;48.740;22.174;2022-10-19T01:55:41;100766.91;;;11.06;100.00
50349;BME280;36250;48.740;22.174;2022-10-19T01:58:09;100768.25;;;11.02;100.00
50349;BME280;36250;48.740;22.174;2022-10-19T02:00:37;100782.16;;;11.04;100.00
50349;BME280;36250;48.740;22.174;2022-10-19T02:03:05;100781.97;;;11.06;100.00
50349;BME280;36250;48.740;22.174;2022-10-19T02:05:32;100778.50;;;11.05;100.00
50349;BME280;36250;48.740;22.174;2022-10-19T02:08:01;100772.00;;;11.08;100.00
50349;BME280;36250;48.740;22.174;2022-10-19T02:10:28;100777.13;;;11.09;100.00
50349;BME280;36250;48.740;22.174;2022-10-19T02:12:55;100781.25;;;11.12;100.00
50349;BME280;36250;48.740;22.174;2022-10-19T02:15:24;100785.25;;;11.08;100.00
50349;BME280;36250;48.740;22.174;2022-10-19T02:17:53;100792.94;;;11.02;100.00
50349;BME280;36250;48.740;22.174;2022-10-19T02:20:22;100789.28;;;11.04;100.00
50349;BME280;36250;48.740;22.174;2022-10-19T02:22:47;100778.94;;;11.09;100.00
50349;BME280;36250;48.740;22.174;2022-10-19T02:25:14;100793.84;;;11.10;100.00
50349;BME280;36250;48.740;22.174;2022-10-19T02:27:40;100791.03;;;11.11;100.00
50349;BME280;36250;48.740;22.174;2022-10-19T02:30:10;100777.13;;;11.09;100.00
50349;BME280;36250;48.740;22.174;2022-10-19T02:32:36;100780.88;;;11.15;100.00
50349;BME280;36250;48.740;22.174;2022-10-19T02:35:01;100779.69;;;11.18;100.00
50349;BME280;36250;48.740;22.174;2022-10-19T02:37:27;100785.13;;;11.24;100.00
50349;BME280;36250;48.740;22.174;2022-10-19T02:39:52;100779.44;;;11.27;100.00
50349;BME280;36250;48.740;22.174;2022-10-19T02:42:23;100777.81;;;11.26;100.00
50349;BME280;36250;48.740;22.174;2022-10-19T02:45:22;100782.91;;;11.28;100.00
50349;BME280;36250;48.740;22.174;2022-10-19T02:47:54;100783.75;;;11.28;100.00
50349;BME280;36250;48.740;22.174;2022-10-19T02:50:21;100774.84;;;11.21;100.00
50349;BME280;36250;48.740;22.174;2022-10-19T02:52:46;100776.84;;;11.19;100.00
50349;BME280;36250;48.740;22.174;2022-10-19T02:55:11;100767.56;;;11.23;100.00
50349;BME280;36250;48.740;22.174;2022-10-19T02:57:37;100769.22;;;11.24;100.00
50349;BME280;36250;48.740;22.174;2022-10-19T03:00:04;100765.06;;;11.22;100.00
50349;BME280;36250;48.740;22.174;2022-10-19T03:02:30;100767.56;;;11.23;100.00
50349;BME280;36250;48.740;22.174;2022-10-19T03:04:56;100761.25;;;11.24;100.00
50349;BME280;36250;48.740;22.174;2022-10-19T03:07:21;100764.72;;;11.25;100.00
50349;BME280;36250;48.740;22.174;2022-10-19T03:09:47;100762.25;;;11.23;100.00
50349;BME280;36250;48.740;22.174;2022-10-19T03:12:13;100759.41;;;11.25;100.00
50349;BME280;36250;48.740;22.174;2022-10-19T03:14:38;100757.41;;;11.27;100.00
50349;BME280;36250;48.740;22.174;2022-10-19T03:17:04;100760.50;;;11.15;100.00
50349;BME280;36250;48.740;22.174;2022-10-19T03:19:30;100765.59;;;11.02;100.00
50349;BME280;36250;48.740;22.174;2022-10-19T03:21:56;100767.25;;;11.03;100.00
50349;BME280;36250;48.740;22.174;2022-10-19T03:24:22;100762.41;;;11.07;100.00
50349;BME280;36250;48.740;22.174;2022-10-19T03:26:47;100759.59;;;11.08;100.00
50349;BME280;36250;48.740;22.174;2022-10-19T03:29:13;100764.03;;;11.08;100.00
50349;BME280;36250;48.740;22.174;2022-10-19T03:31:38;100762.19;;;10.93;100.00
50349;BME280;36250;48.740;22.174;2022-10-19T03:34:04;100764.22;;;10.91;100.00
50349;BME280;36250;48.740;22.174;2022-10-19T03:36:31;100757.06;;;10.92;100.00
50349;BME280;36250;48.740;22.174;2022-10-19T03:39:03;100759.28;;;10.88;100.00
50349;BME280;36250;48.740;22.174;2022-10-19T03:41:31;100759.78;;;10.83;100.00
50349;BME280;36250;48.740;22.174;2022-10-19T03:43:56;100768.22;;;10.87;100.00
50349;BME280;36250;48.740;22.174;2022-10-19T03:46:22;100753.97;;;10.88;100.00
50349;BME280;36250;48.740;22.174;2022-10-19T03:48:48;100757.91;;;10.92;100.00
50349;BME280;36250;48.740;22.174;2022-10-19T03:51:15;100761.84;;;10.96;100.00
50349;BME280;36250;48.740;22.174;2022-10-19T03:53:43;100761.63;;;10.98;100.00
50349;BME280;36250;48.740;22.174;2022-10-19T03:56:16;100766.94;;;10.98;100.00
50349;BME280;36250;48.740;22.174;2022-10-19T03:58:42;100765.59;;;11.02;100.00
50349;BME280;36250;48.740;22.174;2022-10-19T04:01:10;100769.91;;;11.03;100.00
50349;BME280;36250;48.740;22.174;2022-10-19T04:03:36;100760.09;;;11.04;100.00
50349;BME280;36250;48.740;22.174;2022-10-19T04:06:06;100770.06;;;11.01;100.00
50349;BME280;36250;48.740;22.174;2022-10-19T04:08:32;100773.56;;;11.02;100.00
50349;BME280;36250;48.740;22.174;2022-10-19T04:11:10;100770.72;;;11.04;100.00
50349;BME280;36250;48.740;22.174;2022-10-19T04:13:36;100775.84;;;11.05;100.00
50349;BME280;36250;48.740;22.174;2022-10-19T04:16:02;100780.31;;;11.05;100.00
50349;BME280;36250;48.740;22.174;2022-10-19T04:18:27;100771.72;;;11.02;100.00
50349;BME280;36250;48.740;22.174;2022-10-19T04:21:01;100763.28;;;10.99;100.00
50349;BME280;36250;48.740;22.174;2022-10-19T04:23:28;100764.28;;;10.98;100.00
50349;BME280;36250;48.740;22.174;2022-10-19T04:28:25;100778.38;;;10.98;100.00
50349;BME280;36250;48.740;22.174;2022-10-19T04:30:51;100775.53;;;11.00;100.00
50349;BME280;36250;48.740;22.174;2022-10-19T04:33:16;100779.84;;;11.01;100.00
50349;BME280;36250;48.740;22.174;2022-10-19T04:35:41;100761.75;;;11.05;100.00
50349;BME280;36250;48.740;22.174;2022-10-19T04:38:07;100763.03;;;11.09;100.00
50349;BME280;36250;48.740;22.174;2022-10-19T04:40:35;100751.78;;;11.07;100.00
50349;BME280;36250;48.740;22.174;2022-10-19T04:43:01;100753.00;;;11.04;100.00
50349;BME280;36250;48.740;22.174;2022-10-19T04:45:27;100756.47;;;11.05;100.00
50349;BME280;36250;48.740;22.174;2022-10-19T04:47:53;100748.88;;;11.01;100.00
50349;BME280;36250;48.740;22.174;2022-10-19T04:50:21;100747.59;;;10.97;100.00
50349;BME280;36250;48.740;22.174;2022-10-19T04:52:46;100738.72;;;10.90;100.00
50349;BME280;36250;48.740;22.174;2022-10-19T04:55:11;100741.75;;;10.79;100.00
50349;BME280;36250;48.740;22.174;2022-10-19T04:57:37;100741.47;;;10.73;100.00
50349;BME280;36250;48.740;22.174;2022-10-19T05:00:03;100738.09;;;10.65;100.00
50349;BME280;36250;48.740;22.174;2022-10-19T05:02:28;100738.78;;;10.58;100.00
50349;BME280;36250;48.740;22.174;2022-10-19T05:04:53;100747.09;;;10.55;100.00
50349;BME280;36250;48.740;22.174;2022-10-19T05:07:19;100742.50;;;10.49;100.00
50349;BME280;36250;48.740;22.174;2022-10-19T05:09:44;100746.69;;;10.43;100.00
50349;BME280;36250;48.740;22.174;2022-10-19T05:12:09;100743.69;;;10.38;100.00
50349;BME280;36250;48.740;22.174;2022-10-19T05:14:35;100744.03;;;10.35;100.00
50349;BME280;36250;48.740;22.174;2022-10-19T05:17:00;100747.03;;;10.32;100.00
50349;BME280;36250;48.740;22.174;2022-10-19T05:19:25;100753.53;;;10.29;100.00
50349;BME280;36250;48.740;22.174;2022-10-19T05:21:50;100753.69;;;10.28;100.00
50349;BME280;36250;48.740;22.174;2022-10-19T05:24:16;100755.88;;;10.24;100.00
50349;BME280;36250;48.740;22.174;2022-10-19T05:26:41;100755.56;;;10.19;100.00
50349;BME280;36250;48.740;22.174;2022-10-19T05:29:10;100744.38;;;10.09;100.00
50349;BME280;36250;48.740;22.174;2022-10-19T05:31:36;100735.53;;;9.93;100.00
50349;BME280;36250;48.740;22.174;2022-10-19T05:34:02;100737.38;;;9.84;100.00
50349;BME280;36250;48.740;22.174;2022-10-19T05:36:33;100733.75;;;9.85;100.00
50349;BME280;36250;48.740;22.174;2022-10-19T05:39:05;100740.69;;;9.86;100.00
50349;BME280;36250;48.740;22.174;2022-10-19T05:41:31;100746.13;;;9.93;100.00
50349;BME280;36250;48.740;22.174;2022-10-19T05:43:58;100748.38;;;10.05;100.00
50349;BME280;36250;48.740;22.174;2022-10-19T05:46:25;100748.31;;;10.13;100.00
50349;BME280;36250;48.740;22.174;2022-10-19T05:48:51;100748.47;;;10.20;100.00
50349;BME280;36250;48.740;22.174;2022-10-19T05:51:18;100748.75;;;10.25;100.00
50349;BME280;36250;48.740;22.174;2022-10-19T05:53:45;100752.69;;;10.29;100.00
50349;BME280;36250;48.740;22.174;2022-10-19T05:56:19;100748.66;;;10.10;100.00
50349;BME280;36250;48.740;22.174;2022-10-19T05:58:45;100754.84;;;10.02;100.00
50349;BME280;36250;48.740;22.174;2022-10-19T06:01:11;100746.41;;;9.98;100.00
50349;BME280;36250;48.740;22.174;2022-10-19T06:03:36;100747.41;;;9.97;100.00
50349;BME280;36250;48.740;22.174;2022-10-19T06:06:03;100756.25;;;10.13;100.00
50349;BME280;36250;48.740;22.174;2022-10-19T06:08:29;100753.69;;;10.28;100.00
50349;BME280;36250;48.740;22.174;2022-10-19T06:11:13;100748.69;;;10.41;100.00
50349;BME280;36250;48.740;22.174;2022-10-19T06:13:40;100758.59;;;10.48;100.00
50349;BME280;36250;48.740;22.174;2022-10-19T06:16:07;100751.63;;;10.47;100.00
50349;BME280;36250;48.740;22.174;2022-10-19T06:18:34;100755.56;;;10.51;100.00
50349;BME280;36250;48.740;22.174;2022-10-19T06:21:04;100759.88;;;10.52;100.00
50349;BME280;36250;48.740;22.174;2022-10-19T06:23:31;100758.88;;;10.53;100.00
50349;BME280;36250;48.740;22.174;2022-10-19T06:25:57;100767.75;;;10.60;100.00
50349;BME280;36250;48.740;22.174;2022-10-19T06:28:22;100762.09;;;10.63;100.00
50349;BME280;36250;48.740;22.174;2022-10-19T06:30:47;100768.97;;;10.72;100.00
50349;BME280;36250;48.740;22.174;2022-10-19T06:33:13;100774.22;;;10.81;100.00
50349;BME280;36250;48.740;22.174;2022-10-19T06:35:38;100774.53;;;10.86;100.00
50349;BME280;36250;48.740;22.174;2022-10-19T06:38:06;100767.66;;;10.92;100.00
50349;BME280;36250;48.740;22.174;2022-10-19T06:40:31;100768.19;;;11.10;100.00
50349;BME280;36250;48.740;22.174;2022-10-19T06:42:57;100769.13;;;11.33;100.00
50349;BME280;36250;48.740;22.174;2022-10-19T06:45:23;100772.44;;;11.50;100.00
50349;BME280;36250;48.740;22.174;2022-10-19T06:47:48;100770.41;;;11.67;100.00
50349;BME280;36250;48.740;22.174;2022-10-19T06:50:13;100771.22;;;11.82;100.00
50349;BME280;36250;48.740;22.174;2022-10-19T06:52:38;100770.09;;;11.92;100.00
50349;BME280;36250;48.740;22.174;2022-10-19T06:55:05;100766.91;;;11.96;100.00
50349;BME280;36250;48.740;22.174;2022-10-19T06:57:30;100775.66;;;12.12;100.00
50349;BME280;36250;48.740;22.174;2022-10-19T06:59:56;100778.75;;;12.30;100.00
50349;BME280;36250;48.740;22.174;2022-10-19T07:02:21;100774.88;;;12.33;100.00
50349;BME280;36250;48.740;22.174;2022-10-19T07:04:46;100777.22;;;12.43;100.00
50349;BME280;36250;48.740;22.174;2022-10-19T07:07:12;100783.81;;;12.47;100.00
50349;BME280;36250;48.740;22.174;2022-10-19T07:09:37;100782.56;;;12.65;100.00
50349;BME280;36250;48.740;22.174;2022-10-19T07:12:02;100787.41;;;12.83;100.00
50349;BME280;36250;48.740;22.174;2022-10-19T07:14:28;100785.75;;;13.03;100.00
50349;BME280;36250;48.740;22.174;2022-10-19T07:16:54;100788.56;;;13.24;100.00
50349;BME280;36250;48.740;22.174;2022-10-19T07:19:20;100793.97;;;13.37;100.00
50349;BME280;36250;48.740;22.174;2022-10-19T07:21:49;100798.41;;;13.52;100.00
50349;BME280;36250;48.740;22.174;2022-10-19T07:24:14;100792.97;;;13.73;100.00
50349;BME280;36250;48.740;22.174;2022-10-19T07:26:40;100797.78;;;13.91;100.00
50349;BME280;36250;48.740;22.174;2022-10-19T07:29:05;100790.06;;;14.10;100.00
50349;BME280;36250;48.740;22.174;2022-10-19T07:31:31;100786.00;;;14.14;100.00
50349;BME280;36250;48.740;22.174;2022-10-19T07:34:01;100791.94;;;14.16;100.00
50349;BME280;36250;48.740;22.174;2022-10-19T07:36:28;100788.19;;;14.04;100.00
50349;BME280;36250;48.740;22.174;2022-10-19T07:38:54;100779.13;;;13.91;100.00
50349;BME280;36250;48.740;22.174;2022-10-19T07:41:22;100777.09;;;13.94;100.00
50349;BME280;36250;48.740;22.174;2022-10-19T07:43:48;100772.19;;;13.97;100.00
50349;BME280;36250;48.740;22.174;2022-10-19T07:46:16;100780.41;;;14.02;100.00
50349;BME280;36250;48.740;22.174;2022-10-19T07:48:42;100770.19;;;14.13;100.00
50349;BME280;36250;48.740;22.174;2022-10-19T07:51:09;100759.56;;;14.19;100.00
50349;BME280;36250;48.740;22.174;2022-10-19T07:53:35;100759.38;;;14.28;100.00
50349;BME280;36250;48.740;22.174;2022-10-19T07:56:12;100751.00;;;14.38;100.00
50349;BME280;36250;48.740;22.174;2022-10-19T07:58:38;100754.28;;;14.46;100.00
50349;BME280;36250;48.740;22.174;2022-10-19T08:01:07;100761.25;;;14.54;100.00
50349;BME280;36250;48.740;22.174;2022-10-19T08:03:34;100757.38;;;14.57;100.00
50349;BME280;36250;48.740;22.174;2022-10-19T08:06:05;100761.47;;;14.59;100.00
50349;BME280;36250;48.740;22.174;2022-10-19T08:08:31;100753.91;;;14.63;100.00
50349;BME280;36250;48.740;22.174;2022-10-19T08:10:57;100753.50;;;14.66;100.00
50349;BME280;36250;48.740;22.174;2022-10-19T08:13:23;100749.19;;;14.78;100.00
50349;BME280;36250;48.740;22.174;2022-10-19T08:15:48;100746.94;;;14.89;100.00
50349;BME280;36250;48.740;22.174;2022-10-19T08:18:14;100751.44;;;15.09;100.00
50349;BME280;36250;48.740;22.174;2022-10-19T08:20:42;100742.19;;;15.25;100.00
50349;BME280;36250;48.740;22.174;2022-10-19T08:23:08;100740.09;;;15.40;100.00
50349;BME280;36250;48.740;22.174;2022-10-19T08:25:33;100728.38;;;15.48;100.00
50349;BME280;36250;48.740;22.174;2022-10-19T08:27:59;100735.94;;;15.58;100.00
50349;BME280;36250;48.740;22.174;2022-10-19T08:30:24;100734.88;;;15.65;100.00
50349;BME280;36250;48.740;22.174;2022-10-19T08:32:50;100728.06;;;15.76;100.00
50349;BME280;36250;48.740;22.174;2022-10-19T08:35:15;100745.13;;;15.75;100.00
50349;BME280;36250;48.740;22.174;2022-10-19T08:37:40;100744.72;;;15.72;100.00
50349;BME280;36250;48.740;22.174;2022-10-19T08:40:16;100740.81;;;15.74;100.00
50349;BME280;36250;48.740;22.174;2022-10-19T08:46:00;100745.91;;;15.83;100.00
50349;BME280;36250;48.740;22.174;2022-10-19T08:48:32;100738.09;;;15.88;100.00
50349;BME280;36250;48.740;22.174;2022-10-19T08:51:01;100724.53;;;15.89;100.00
50349;BME280;36250;48.740;22.174;2022-10-19T08:53:38;100730.41;;;16.05;100.00
50349;BME280;36250;48.740;22.174;2022-10-19T08:58:56;100721.66;;;16.23;95.14
50349;BME280;36250;48.740;22.174;2022-10-19T09:03:59;100730.41;;;16.37;95.28
50349;BME280;36250;48.740;22.174;2022-10-19T09:09:31;100725.59;;;16.53;93.92
50349;BME280;36250;48.740;22.174;2022-10-19T09:12:06;100713.94;;;16.40;90.08
50349;BME280;36250;48.740;22.174;2022-10-19T09:14:56;100717.06;;;16.37;88.45
50349;BME280;36250;48.740;22.174;2022-10-19T09:17:23;100719.97;;;16.61;86.52
50349;BME280;36250;48.740;22.174;2022-10-19T09:19:50;100721.06;;;16.78;87.95
50349;BME280;36250;48.740;22.174;2022-10-19T09:22:19;100718.53;;;16.84;82.23
50349;BME280;36250;48.740;22.174;2022-10-19T09:24:51;100725.06;;;16.88;85.20
50349;BME280;36250;48.740;22.174;2022-10-19T09:27:25;100722.34;;;16.94;84.14
50349;BME280;36250;48.740;22.174;2022-10-19T09:30:00;100721.94;;;16.98;86.63
50349;BME280;36250;48.740;22.174;2022-10-19T09:32:31;100723.28;;;17.07;84.51
50349;BME280;36250;48.740;22.174;2022-10-19T09:35:00;100722.47;;;17.25;83.04
50349;BME280;36250;48.740;22.174;2022-10-19T09:37:28;100716.88;;;17.08;79.06
50349;BME280;36250;48.740;22.174;2022-10-19T09:39:54;100717.88;;;16.88;82.50
50349;BME280;36250;48.740;22.174;2022-10-19T09:42:21;100728.88;;;16.80;83.09
50349;BME280;36250;48.740;22.174;2022-10-19T09:44:49;100730.66;;;16.61;84.07
50349;BME280;36250;48.740;22.174;2022-10-19T09:47:32;100722.13;;;16.45;83.14
50349;BME280;36250;48.740;22.174;2022-10-19T09:50:14;100722.50;;;16.56;82.58
50349;BME280;36250;48.740;22.174;2022-10-19T09:52:42;100720.28;;;16.71;83.36
50349;BME280;36250;48.740;22.174;2022-10-19T09:57:47;100730.78;;;16.73;81.82
50349;BME280;36250;48.740;22.174;2022-10-19T10:00:21;100744.38;;;16.71;83.72
50349;BME280;36250;48.740;22.174;2022-10-19T10:02:54;100735.63;;;16.83;82.57
50349;BME280;36250;48.740;22.174;2022-10-19T10:05:35;100742.31;;;16.99;80.95
50349;BME280;36250;48.740;22.174;2022-10-19T10:08:03;100743.16;;;16.92;81.98
50349;BME280;36250;48.740;22.174;2022-10-19T10:10:37;100745.25;;;16.65;81.88
50349;BME280;36250;48.740;22.174;2022-10-19T10:13:03;100758.00;;;16.63;85.28
50349;BME280;36250;48.740;22.174;2022-10-19T10:15:59;100761.44;;;16.70;84.33
50349;BME280;36250;48.740;22.174;2022-10-19T10:18:26;100752.97;;;16.48;80.28
50349;BME280;36250;48.740;22.174;2022-10-19T10:23:32;100746.03;;;16.40;80.11
50349;BME280;36250;48.740;22.174;2022-10-19T10:26:00;100755.69;;;16.41;82.54
50349;BME280;36250;48.740;22.174;2022-10-19T10:28:28;100754.75;;;16.29;80.72
50349;BME280;36250;48.740;22.174;2022-10-19T10:31:01;100754.75;;;16.29;79.09
50349;BME280;36250;48.740;22.174;2022-10-19T10:33:28;100741.69;;;16.07;81.09
50349;BME280;36250;48.740;22.174;2022-10-19T10:35:59;100756.38;;;15.84;83.13
50349;BME280;36250;48.740;22.174;2022-10-19T10:38:27;100734.84;;;15.79;84.47
50349;BME280;36250;48.740;22.174;2022-10-19T10:41:11;100758.88;;;15.79;83.70
50349;BME280;36250;48.740;22.174;2022-10-19T10:43:52;100729.50;;;15.79;80.68
50349;BME280;36250;48.740;22.174;2022-10-19T10:46:25;100737.50;;;15.79;78.19
50349;BME280;36250;48.740;22.174;2022-10-19T10:49:01;100733.03;;;15.73;77.88
50349;BME280;36250;48.740;22.174;2022-10-19T10:51:36;100728.25;;;15.88;78.86
50349;BME280;36250;48.740;22.174;2022-10-19T10:56:40;100709.63;;;16.07;75.13
50349;BME280;36250;48.740;22.174;2022-10-19T10:59:17;100714.56;;;16.10;76.28
50349;BME280;36250;48.740;22.174;2022-10-19T11:01:57;100706.19;;;16.32;76.42
50349;BME280;36250;48.740;22.174;2022-10-19T11:04:31;100700.84;;;16.32;72.18
50349;BME280;36250;48.740;22.174;2022-10-19T11:07:02;100705.94;;;16.40;72.76
50349;BME280;36250;48.740;22.174;2022-10-19T11:11:55;100702.00;;;16.43;68.92
50349;BME280;36250;48.740;22.174;2022-10-19T11:14:50;100685.69;;;16.26;69.45
50349;BME280;36250;48.740;22.174;2022-10-19T11:17:23;100687.16;;;16.47;71.17
50349;BME280;36250;48.740;22.174;2022-10-19T11:19:49;100675.47;;;16.41;64.63
50349;BME280;36250;48.740;22.174;2022-10-19T11:24:56;100670.66;;;16.57;63.96
50349;BME280;36250;48.740;22.174;2022-10-19T11:27:42;100672.81;;;16.66;63.87
50349;BME280;36250;48.740;22.174;2022-10-19T11:30:22;100662.38;;;16.58;61.88
50349;BME280;36250;48.740;22.174;2022-10-19T11:32:59;100662.66;;;16.75;62.49
50349;BME280;36250;48.740;22.174;2022-10-19T11:38:34;100648.28;;;16.70;60.05
50349;BME280;36250;48.740;22.174;2022-10-19T11:49:34;100645.53;;;16.58;58.83
50349;BME280;36250;48.740;22.174;2022-10-19T11:52:06;100642.38;;;16.42;60.49
50349;BME280;36250;48.740;22.174;2022-10-19T11:55:00;100632.78;;;16.60;59.04
50349;BME280;36250;48.740;22.174;2022-10-19T12:00:13;100629.34;;;16.90;59.85
50349;BME280;36250;48.740;22.174;2022-10-19T12:08:02;100614.59;;;17.25;56.68
50349;BME280;36250;48.740;22.174;2022-10-19T12:10:46;100613.81;;;17.55;56.17
50349;BME280;36250;48.740;22.174;2022-10-19T12:13:19;100595.88;;;18.93;49.16
50349;BME280;36250;48.740;22.174;2022-10-19T12:15:51;100579.59;;;20.55;45.42
50349;BME280;36250;48.740;22.174;2022-10-19T12:20:50;100568.28;;;21.75;39.73
50349;BME280;36250;48.740;22.174;2022-10-19T12:23:27;100568.34;;;25.14;32.45
50349;BME280;36250;48.740;22.174;2022-10-19T12:25:55;100570.63;;;20.49;40.17
50349;BME280;36250;48.740;22.174;2022-10-19T12:28:26;100581.47;;;18.22;46.85
50349;BME280;36250;48.740;22.174;2022-10-19T12:30:53;100589.56;;;19.40;44.42
50349;BME280;36250;48.740;22.174;2022-10-19T12:33:30;100585.66;;;17.33;49.54
50349;BME280;36250;48.740;22.174;2022-10-19T12:36:18;100588.56;;;16.57;52.68
50349;BME280;36250;48.740;22.174;2022-10-19T12:42:00;100598.41;;;16.38;54.47
50349;BME280;36250;48.740;22.174;2022-10-19T12:45:07;100602.72;;;16.39;54.89
50349;BME280;36250;48.740;22.174;2022-10-19T12:47:37;100614.75;;;16.48;53.85
50349;BME280;36250;48.740;22.174;2022-10-19T12:50:02;100606.38;;;17.07;54.64
50349;BME280;36250;48.740;22.174;2022-10-19T12:55:28;100619.34;;;16.41;59.58
50349;BME280;36250;48.740;22.174;2022-10-19T12:58:04;100615.19;;;15.95;54.10
50349;BME280;36250;48.740;22.174;2022-10-19T13:00:35;100643.59;;;15.82;57.08
50349;BME280;36250;48.740;22.174;2022-10-19T13:03:21;100626.59;;;15.70;55.14
50349;BME280;36250;48.740;22.174;2022-10-19T13:06:01;100621.91;;;15.72;53.78
50349;BME280;36250;48.740;22.174;2022-10-19T13:08:39;100622.78;;;15.59;54.02
50349;BME280;36250;48.740;22.174;2022-10-19T13:11:08;100623.22;;;15.56;54.79
50349;BME280;36250;48.740;22.174;2022-10-19T13:19:22;100619.69;;;15.62;52.47
50349;BME280;36250;48.740;22.174;2022-10-19T13:32:31;100577.31;;;26.19;29.44
50349;BME280;36250;48.740;22.174;2022-10-19T13:35:24;100558.56;;;26.23;28.34
50349;BME280;36250;48.740;22.174;2022-10-19T13:40:36;100560.72;;;24.56;29.67
50349;BME280;36250;48.740;22.174;2022-10-19T13:43:03;100577.56;;;21.07;36.12
50349;BME280;36250;48.740;22.174;2022-10-19T13:45:28;100592.88;;;20.05;40.42
50349;BME280;36250;48.740;22.174;2022-10-19T13:48:04;100591.66;;;24.19;32.78
50349;BME280;36250;48.740;22.174;2022-10-19T13:50:40;100584.03;;;24.41;31.97
50349;BME280;36250;48.740;22.174;2022-10-19T14:04:12;100588.22;;;22.44;32.10
50349;BME280;36250;48.740;22.174;2022-10-19T14:07:01;100570.13;;;22.98;31.16
50349;BME280;36250;48.740;22.174;2022-10-19T14:12:24;100577.53;;;21.29;32.28
50349;BME280;36250;48.740;22.174;2022-10-19T14:14:50;100598.94;;;20.91;32.84
50349;BME280;36250;48.740;22.174;2022-10-19T14:17:23;100576.97;;;21.54;32.90
50349;BME280;36250;48.740;22.174;2022-10-19T14:19:52;100578.31;;;21.52;33.16
50349;BME280;36250;48.740;22.174;2022-10-19T14:22:19;100578.22;;;20.52;33.97
50349;BME280;36250;48.740;22.174;2022-10-19T14:24:45;100583.44;;;20.42;34.87
50349;BME280;36250;48.740;22.174;2022-10-19T14:27:17;100577.81;;;19.00;37.54
50349;BME280;36250;48.740;22.174;2022-10-19T14:29:46;100580.66;;;18.34;40.03
50349;BME280;36250;48.740;22.174;2022-10-19T14:32:12;100587.19;;;18.02;41.96
50349;BME280;36250;48.740;22.174;2022-10-19T14:34:45;100592.88;;;20.22;37.50
50349;BME280;36250;48.740;22.174;2022-10-19T14:37:31;100593.44;;;19.03;40.23